sensor_id;sensor_type;location;lat;lon;timestamp;P1;durP1;ratioP1;P2;durP2;ratioP2
6977;SDS011;3529;53.244;10.414;2023-09-18T00:02:13;2.55;;;2.35;;
6977;SDS011;3529;53.244;10.414;2023-09-18T00:04:39;2.55;;;1.88;;
6977;SDS011;3529;53.244;10.414;2023-09-18T00:07:05;1.42;;;1.42;;
6977;SDS011;3529;53.244;10.414;2023-09-18T00:09:31;1.58;;;1.48;;
6977;SDS011;3529;53.244;10.414;2023-09-18T00:11:57;2.90;;;1.80;;
6977;SDS011;3529;53.244;10.414;2023-09-18T00:14:23;2.30;;;2.17;;
6977;SDS011;3529;53.244;10.414;2023-09-18T00:16:49;1.63;;;1.52;;
6977;SDS011;3529;53.244;10.414;2023-09-18T00:19:16;1.90;;;1.80;;
6977;SDS011;3529;53.244;10.414;2023-09-18T00:21:42;1.60;;;1.60;;
6977;SDS011;3529;53.244;10.414;2023-09-18T00:24:09;1.77;;;1.70;;
6977;SDS011;3529;53.244;10.414;2023-09-18T00:26:36;2.35;;;1.65;;
6977;SDS011;3529;53.244;10.414;2023-09-18T00:29:02;2.05;;;1.95;;
6977;SDS011;3529;53.244;10.414;2023-09-18T00:31:28;2.00;;;1.90;;
6977;SDS011;3529;53.244;10.414;2023-09-18T00:33:54;1.83;;;1.73;;
6977;SDS011;3529;53.244;10.414;2023-09-18T00:36:20;1.88;;;1.77;;
6977;SDS011;3529;53.244;10.414;2023-09-18T00:38:46;2.03;;;1.90;;
6977;SDS011;3529;53.244;10.414;2023-09-18T00:41:12;1.55;;;1.55;;
6977;SDS011;3529;53.244;10.414;2023-09-18T00:43:38;1.30;;;1.30;;
6977;SDS011;3529;53.244;10.414;2023-09-18T00:46:04;2.70;;;2.50;;
6977;SDS011;3529;53.244;10.414;2023-09-18T00:48:30;1.63;;;1.52;;
6977;SDS011;3529;53.244;10.414;2023-09-18T00:50:56;2.25;;;2.15;;
6977;SDS011;3529;53.244;10.414;2023-09-18T00:53:23;1.95;;;1.85;;
6977;SDS011;3529;53.244;10.414;2023-09-18T00:55:50;2.25;;;1.95;;
6977;SDS011;3529;53.244;10.414;2023-09-18T00:58:18;1.80;;;1.70;;
6977;SDS011;3529;53.244;10.414;2023-09-18T01:00:44;2.30;;;2.10;;
6977;SDS011;3529;53.244;10.414;2023-09-18T01:03:10;1.45;;;1.45;;
6977;SDS011;3529;53.244;10.414;2023-09-18T01:05:36;2.05;;;1.95;;
6977;SDS011;3529;53.244;10.414;2023-09-18T01:08:02;2.40;;;2.30;;
6977;SDS011;3529;53.244;10.414;2023-09-18T01:10:36;1.88;;;1.77;;
6977;SDS011;3529;53.244;10.414;2023-09-18T01:13:08;1.30;;;1.30;;
6977;SDS011;3529;53.244;10.414;2023-09-18T01:18:25;1.85;;;1.75;;
6977;SDS011;3529;53.244;10.414;2023-09-18T01:20:51;2.33;;;2.13;;
6977;SDS011;3529;53.244;10.414;2023-09-18T01:23:17;1.73;;;1.63;;
6977;SDS011;3529;53.244;10.414;2023-09-18T01:25:43;2.28;;;1.98;;
6977;SDS011;3529;53.244;10.414;2023-09-18T01:28:09;1.80;;;1.75;;
6977;SDS011;3529;53.244;10.414;2023-09-18T01:30:35;2.00;;;1.90;;
6977;SDS011;3529;53.244;10.414;2023-09-18T01:33:03;1.75;;;1.65;;
6977;SDS011;3529;53.244;10.414;2023-09-18T01:35:29;5.03;;;2.25;;
6977;SDS011;3529;53.244;10.414;2023-09-18T01:37:57;2.00;;;1.90;;
6977;SDS011;3529;53.244;10.414;2023-09-18T01:40:24;2.80;;;2.28;;
6977;SDS011;3529;53.244;10.414;2023-09-18T01:42:50;1.55;;;1.45;;
6977;SDS011;3529;53.244;10.414;2023-09-18T01:45:16;2.78;;;2.55;;
6977;SDS011;3529;53.244;10.414;2023-09-18T01:47:42;2.40;;;2.30;;
6977;SDS011;3529;53.244;10.414;2023-09-18T01:50:09;1.52;;;1.52;;
6977;SDS011;3529;53.244;10.414;2023-09-18T01:52:35;1.90;;;1.80;;
6977;SDS011;3529;53.244;10.414;2023-09-18T01:55:01;2.35;;;2.20;;
6977;SDS011;3529;53.244;10.414;2023-09-18T01:57:29;1.40;;;1.30;;
6977;SDS011;3529;53.244;10.414;2023-09-18T01:59:55;3.00;;;2.55;;
6977;SDS011;3529;53.244;10.414;2023-09-18T02:02:21;1.70;;;1.70;;
6977;SDS011;3529;53.244;10.414;2023-09-18T02:04:47;1.95;;;1.85;;
6977;SDS011;3529;53.244;10.414;2023-09-18T02:07:13;1.50;;;1.50;;
6977;SDS011;3529;53.244;10.414;2023-09-18T02:09:40;1.38;;;1.38;;
6977;SDS011;3529;53.244;10.414;2023-09-18T02:12:06;1.75;;;1.65;;
6977;SDS011;3529;53.244;10.414;2023-09-18T02:14:32;1.67;;;1.58;;
6977;SDS011;3529;53.244;10.414;2023-09-18T02:16:59;1.42;;;1.40;;
6977;SDS011;3529;53.244;10.414;2023-09-18T02:19:25;1.90;;;1.80;;
6977;SDS011;3529;53.244;10.414;2023-09-18T02:21:51;1.85;;;1.75;;
6977;SDS011;3529;53.244;10.414;2023-09-18T02:24:17;2.05;;;1.95;;
6977;SDS011;3529;53.244;10.414;2023-09-18T02:26:44;1.67;;;1.58;;
6977;SDS011;3529;53.244;10.414;2023-09-18T02:29:10;1.75;;;1.65;;
6977;SDS011;3529;53.244;10.414;2023-09-18T02:31:38;2.45;;;2.35;;
6977;SDS011;3529;53.244;10.414;2023-09-18T02:34:04;1.80;;;1.70;;
6977;SDS011;3529;53.244;10.414;2023-09-18T02:36:30;2.08;;;1.98;;
6977;SDS011;3529;53.244;10.414;2023-09-18T02:38:56;1.70;;;1.60;;
6977;SDS011;3529;53.244;10.414;2023-09-18T02:41:22;1.80;;;1.70;;
6977;SDS011;3529;53.244;10.414;2023-09-18T02:43:48;2.08;;;1.98;;
6977;SDS011;3529;53.244;10.414;2023-09-18T02:46:14;2.08;;;1.98;;
6977;SDS011;3529;53.244;10.414;2023-09-18T02:48:40;2.28;;;2.17;;
6977;SDS011;3529;53.244;10.414;2023-09-18T02:51:08;1.52;;;1.50;;
6977;SDS011;3529;53.244;10.414;2023-09-18T02:53:34;1.70;;;1.60;;
6977;SDS011;3529;53.244;10.414;2023-09-18T02:56:00;1.33;;;1.33;;
6977;SDS011;3529;53.244;10.414;2023-09-18T02:58:26;1.35;;;1.35;;
6977;SDS011;3529;53.244;10.414;2023-09-18T03:00:54;1.33;;;1.33;;
6977;SDS011;3529;53.244;10.414;2023-09-18T03:03:20;1.90;;;1.80;;
6977;SDS011;3529;53.244;10.414;2023-09-18T03:05:46;2.17;;;2.08;;
6977;SDS011;3529;53.244;10.414;2023-09-18T03:08:13;1.85;;;1.75;;
6977;SDS011;3529;53.244;10.414;2023-09-18T03:10:41;1.40;;;1.40;;
6977;SDS011;3529;53.244;10.414;2023-09-18T03:13:08;1.77;;;1.70;;
6977;SDS011;3529;53.244;10.414;2023-09-18T03:15:34;2.45;;;2.33;;
6977;SDS011;3529;53.244;10.414;2023-09-18T03:18:01;2.08;;;1.98;;
6977;SDS011;3529;53.244;10.414;2023-09-18T03:20:28;1.98;;;1.88;;
6977;SDS011;3529;53.244;10.414;2023-09-18T03:22:58;2.97;;;2.80;;
6977;SDS011;3529;53.244;10.414;2023-09-18T03:25:24;1.92;;;1.83;;
6977;SDS011;3529;53.244;10.414;2023-09-18T03:27:51;2.42;;;2.33;;
6977;SDS011;3529;53.244;10.414;2023-09-18T03:30:17;2.00;;;1.90;;
6977;SDS011;3529;53.244;10.414;2023-09-18T03:32:43;1.85;;;1.75;;
6977;SDS011;3529;53.244;10.414;2023-09-18T03:35:10;1.73;;;1.63;;
6977;SDS011;3529;53.244;10.414;2023-09-18T03:37:43;1.90;;;1.80;;
6977;SDS011;3529;53.244;10.414;2023-09-18T03:40:09;1.85;;;1.75;;
6977;SDS011;3529;53.244;10.414;2023-09-18T03:42:35;1.50;;;1.50;;
6977;SDS011;3529;53.244;10.414;2023-09-18T03:45:02;1.48;;;1.45;;
6977;SDS011;3529;53.244;10.414;2023-09-18T03:47:28;1.50;;;1.50;;
6977;SDS011;3529;53.244;10.414;2023-09-18T03:49:54;1.90;;;1.80;;
6977;SDS011;3529;53.244;10.414;2023-09-18T03:52:20;1.38;;;1.35;;
6977;SDS011;3529;53.244;10.414;2023-09-18T03:54:46;3.53;;;2.05;;
6977;SDS011;3529;53.244;10.414;2023-09-18T03:57:12;1.73;;;1.70;;
6977;SDS011;3529;53.244;10.414;2023-09-18T03:59:38;1.50;;;1.50;;
6977;SDS011;3529;53.244;10.414;2023-09-18T04:02:04;1.80;;;1.70;;
6977;SDS011;3529;53.244;10.414;2023-09-18T04:04:30;2.25;;;2.10;;
6977;SDS011;3529;53.244;10.414;2023-09-18T04:06:57;1.88;;;1.77;;
6977;SDS011;3529;53.244;10.414;2023-09-18T04:09:23;1.90;;;1.80;;
6977;SDS011;3529;53.244;10.414;2023-09-18T04:11:49;2.25;;;2.15;;
6977;SDS011;3529;53.244;10.414;2023-09-18T04:14:15;2.20;;;2.03;;
6977;SDS011;3529;53.244;10.414;2023-09-18T04:16:41;1.38;;;1.38;;
6977;SDS011;3529;53.244;10.414;2023-09-18T04:19:08;1.63;;;1.55;;
6977;SDS011;3529;53.244;10.414;2023-09-18T04:21:34;1.92;;;1.83;;
6977;SDS011;3529;53.244;10.414;2023-09-18T04:24:01;2.17;;;2.08;;
6977;SDS011;3529;53.244;10.414;2023-09-18T04:26:27;1.50;;;1.50;;
6977;SDS011;3529;53.244;10.414;2023-09-18T04:28:56;1.48;;;1.48;;
6977;SDS011;3529;53.244;10.414;2023-09-18T04:31:22;1.83;;;1.73;;
6977;SDS011;3529;53.244;10.414;2023-09-18T04:33:48;2.05;;;1.95;;
6977;SDS011;3529;53.244;10.414;2023-09-18T04:36:14;2.20;;;2.10;;
6977;SDS011;3529;53.244;10.414;2023-09-18T04:38:40;1.90;;;1.80;;
6977;SDS011;3529;53.244;10.414;2023-09-18T04:41:06;1.45;;;1.38;;
6977;SDS011;3529;53.244;10.414;2023-09-18T04:43:35;1.30;;;1.30;;
6977;SDS011;3529;53.244;10.414;2023-09-18T04:46:01;2.05;;;1.95;;
6977;SDS011;3529;53.244;10.414;2023-09-18T04:48:29;2.22;;;2.13;;
6977;SDS011;3529;53.244;10.414;2023-09-18T04:50:56;1.88;;;1.77;;
6977;SDS011;3529;53.244;10.414;2023-09-18T04:53:22;2.08;;;1.98;;
6977;SDS011;3529;53.244;10.414;2023-09-18T04:55:48;1.77;;;1.67;;
6977;SDS011;3529;53.244;10.414;2023-09-18T04:58:15;2.28;;;2.17;;
6977;SDS011;3529;53.244;10.414;2023-09-18T05:00:41;2.85;;;2.65;;
6977;SDS011;3529;53.244;10.414;2023-09-18T05:03:07;2.00;;;1.90;;
6977;SDS011;3529;53.244;10.414;2023-09-18T05:05:34;2.85;;;2.75;;
6977;SDS011;3529;53.244;10.414;2023-09-18T05:08:05;1.50;;;1.40;;
6977;SDS011;3529;53.244;10.414;2023-09-18T05:10:32;1.90;;;1.80;;
6977;SDS011;3529;53.244;10.414;2023-09-18T05:12:59;2.35;;;2.15;;
6977;SDS011;3529;53.244;10.414;2023-09-18T05:15:25;1.98;;;1.88;;
6977;SDS011;3529;53.244;10.414;2023-09-18T05:17:54;1.92;;;1.83;;
6977;SDS011;3529;53.244;10.414;2023-09-18T05:20:22;1.70;;;1.65;;
6977;SDS011;3529;53.244;10.414;2023-09-18T05:22:53;2.10;;;2.00;;
6977;SDS011;3529;53.244;10.414;2023-09-18T05:25:24;1.77;;;1.67;;
6977;SDS011;3529;53.244;10.414;2023-09-18T05:27:50;2.03;;;1.70;;
6977;SDS011;3529;53.244;10.414;2023-09-18T05:30:23;1.65;;;1.55;;
6977;SDS011;3529;53.244;10.414;2023-09-18T05:32:50;2.22;;;1.77;;
6977;SDS011;3529;53.244;10.414;2023-09-18T05:35:16;1.77;;;1.67;;
6977;SDS011;3529;53.244;10.414;2023-09-18T05:37:42;2.78;;;2.17;;
6977;SDS011;3529;53.244;10.414;2023-09-18T05:40:10;2.25;;;2.15;;
6977;SDS011;3529;53.244;10.414;2023-09-18T05:42:39;2.05;;;1.95;;
6977;SDS011;3529;53.244;10.414;2023-09-18T05:45:08;1.83;;;1.73;;
6977;SDS011;3529;53.244;10.414;2023-09-18T05:47:34;2.30;;;2.20;;
6977;SDS011;3529;53.244;10.414;2023-09-18T05:50:01;2.20;;;2.10;;
6977;SDS011;3529;53.244;10.414;2023-09-18T05:52:31;2.25;;;2.05;;
6977;SDS011;3529;53.244;10.414;2023-09-18T05:54:58;2.17;;;2.08;;
6977;SDS011;3529;53.244;10.414;2023-09-18T05:57:24;2.15;;;1.77;;
6977;SDS011;3529;53.244;10.414;2023-09-18T05:59:50;1.75;;;1.67;;
6977;SDS011;3529;53.244;10.414;2023-09-18T06:02:16;5.22;;;4.82;;
6977;SDS011;3529;53.244;10.414;2023-09-18T06:04:42;3.33;;;3.13;;
6977;SDS011;3529;53.244;10.414;2023-09-18T06:07:08;4.07;;;3.75;;
6977;SDS011;3529;53.244;10.414;2023-09-18T06:09:34;6.03;;;4.43;;
6977;SDS011;3529;53.244;10.414;2023-09-18T06:12:00;5.28;;;4.88;;
6977;SDS011;3529;53.244;10.414;2023-09-18T06:14:26;3.38;;;3.08;;
6977;SDS011;3529;53.244;10.414;2023-09-18T06:16:52;2.50;;;1.90;;
6977;SDS011;3529;53.244;10.414;2023-09-18T06:19:18;2.70;;;2.50;;
6977;SDS011;3529;53.244;10.414;2023-09-18T06:21:44;2.85;;;2.65;;
6977;SDS011;3529;53.244;10.414;2023-09-18T06:24:10;2.30;;;2.20;;
6977;SDS011;3529;53.244;10.414;2023-09-18T06:26:37;2.00;;;1.90;;
6977;SDS011;3529;53.244;10.414;2023-09-18T06:29:03;1.50;;;1.40;;
6977;SDS011;3529;53.244;10.414;2023-09-18T06:31:30;1.77;;;1.67;;
6977;SDS011;3529;53.244;10.414;2023-09-18T06:33:56;1.58;;;1.58;;
6977;SDS011;3529;53.244;10.414;2023-09-18T06:36:22;2.05;;;1.85;;
6977;SDS011;3529;53.244;10.414;2023-09-18T06:38:48;1.38;;;1.38;;
6977;SDS011;3529;53.244;10.414;2023-09-18T06:41:14;2.20;;;2.05;;
6977;SDS011;3529;53.244;10.414;2023-09-18T06:43:40;2.67;;;2.10;;
6977;SDS011;3529;53.244;10.414;2023-09-18T06:46:06;2.50;;;2.35;;
6977;SDS011;3529;53.244;10.414;2023-09-18T06:48:33;1.30;;;1.27;;
6977;SDS011;3529;53.244;10.414;2023-09-18T06:50:59;2.60;;;2.40;;
6977;SDS011;3529;53.244;10.414;2023-09-18T06:53:26;2.15;;;2.05;;
6977;SDS011;3529;53.244;10.414;2023-09-18T06:55:55;2.42;;;2.22;;
6977;SDS011;3529;53.244;10.414;2023-09-18T06:58:21;1.98;;;1.88;;
6977;SDS011;3529;53.244;10.414;2023-09-18T07:00:47;3.47;;;3.17;;
6977;SDS011;3529;53.244;10.414;2023-09-18T07:03:15;2.03;;;1.92;;
6977;SDS011;3529;53.244;10.414;2023-09-18T07:05:42;1.55;;;1.52;;
6977;SDS011;3529;53.244;10.414;2023-09-18T07:08:08;2.03;;;1.92;;
6977;SDS011;3529;53.244;10.414;2023-09-18T07:10:37;1.65;;;1.55;;
6977;SDS011;3529;53.244;10.414;2023-09-18T07:13:03;1.77;;;1.67;;
6977;SDS011;3529;53.244;10.414;2023-09-18T07:15:29;1.58;;;1.52;;
6977;SDS011;3529;53.244;10.414;2023-09-18T07:17:55;1.63;;;1.52;;
6977;SDS011;3529;53.244;10.414;2023-09-18T07:20:21;4.88;;;1.85;;
6977;SDS011;3529;53.244;10.414;2023-09-18T07:22:49;1.98;;;1.88;;
6977;SDS011;3529;53.244;10.414;2023-09-18T07:25:15;2.03;;;1.77;;
6977;SDS011;3529;53.244;10.414;2023-09-18T07:27:41;1.75;;;1.60;;
6977;SDS011;3529;53.244;10.414;2023-09-18T07:30:11;1.98;;;1.88;;
6977;SDS011;3529;53.244;10.414;2023-09-18T07:32:39;1.48;;;1.35;;
6977;SDS011;3529;53.244;10.414;2023-09-18T07:35:08;1.63;;;1.52;;
6977;SDS011;3529;53.244;10.414;2023-09-18T07:37:34;1.92;;;1.83;;
6977;SDS011;3529;53.244;10.414;2023-09-18T07:40:00;1.85;;;1.75;;
6977;SDS011;3529;53.244;10.414;2023-09-18T07:42:27;1.63;;;1.52;;
6977;SDS011;3529;53.244;10.414;2023-09-18T07:44:53;1.38;;;1.27;;
6977;SDS011;3529;53.244;10.414;2023-09-18T07:47:20;2.50;;;2.30;;
6977;SDS011;3529;53.244;10.414;2023-09-18T07:49:46;2.03;;;1.92;;
6977;SDS011;3529;53.244;10.414;2023-09-18T07:52:12;3.15;;;2.95;;
6977;SDS011;3529;53.244;10.414;2023-09-18T07:54:38;5.18;;;3.30;;
6977;SDS011;3529;53.244;10.414;2023-09-18T07:57:04;2.65;;;2.33;;
6977;SDS011;3529;53.244;10.414;2023-09-18T07:59:34;1.80;;;1.70;;
6977;SDS011;3529;53.244;10.414;2023-09-18T08:02:00;1.63;;;1.52;;
6977;SDS011;3529;53.244;10.414;2023-09-18T08:04:26;1.65;;;1.55;;
6977;SDS011;3529;53.244;10.414;2023-09-18T08:06:52;1.33;;;1.25;;
6977;SDS011;3529;53.244;10.414;2023-09-18T08:09:18;2.30;;;2.20;;
6977;SDS011;3529;53.244;10.414;2023-09-18T08:11:44;1.65;;;1.58;;
6977;SDS011;3529;53.244;10.414;2023-09-18T08:14:10;2.47;;;2.28;;
6977;SDS011;3529;53.244;10.414;2023-09-18T08:16:37;1.70;;;1.60;;
6977;SDS011;3529;53.244;10.414;2023-09-18T08:19:04;1.73;;;1.63;;
6977;SDS011;3529;53.244;10.414;2023-09-18T08:21:31;1.30;;;1.20;;
6977;SDS011;3529;53.244;10.414;2023-09-18T08:23:57;1.95;;;1.85;;
6977;SDS011;3529;53.244;10.414;2023-09-18T08:26:24;1.55;;;1.45;;
6977;SDS011;3529;53.244;10.414;2023-09-18T08:28:53;1.25;;;1.25;;
6977;SDS011;3529;53.244;10.414;2023-09-18T08:31:19;1.60;;;1.50;;
6977;SDS011;3529;53.244;10.414;2023-09-18T08:33:45;1.40;;;1.40;;
6977;SDS011;3529;53.244;10.414;2023-09-18T08:36:11;1.83;;;1.70;;
6977;SDS011;3529;53.244;10.414;2023-09-18T08:38:38;1.73;;;1.63;;
6977;SDS011;3529;53.244;10.414;2023-09-18T08:41:04;1.95;;;1.85;;
6977;SDS011;3529;53.244;10.414;2023-09-18T08:43:31;1.63;;;1.52;;
6977;SDS011;3529;53.244;10.414;2023-09-18T08:45:57;2.22;;;1.75;;
6977;SDS011;3529;53.244;10.414;2023-09-18T08:48:28;2.15;;;2.05;;
6977;SDS011;3529;53.244;10.414;2023-09-18T08:51:00;1.42;;;1.40;;
6977;SDS011;3529;53.244;10.414;2023-09-18T08:53:28;1.33;;;1.33;;
6977;SDS011;3529;53.244;10.414;2023-09-18T08:55:55;2.03;;;1.92;;
6977;SDS011;3529;53.244;10.414;2023-09-18T08:58:23;1.95;;;1.85;;
6977;SDS011;3529;53.244;10.414;2023-09-18T09:00:50;1.33;;;1.33;;
6977;SDS011;3529;53.244;10.414;2023-09-18T09:03:16;2.10;;;1.98;;
6977;SDS011;3529;53.244;10.414;2023-09-18T09:05:42;1.98;;;1.65;;
6977;SDS011;3529;53.244;10.414;2023-09-18T09:08:08;1.88;;;1.77;;
6977;SDS011;3529;53.244;10.414;2023-09-18T09:10:34;1.75;;;1.65;;
6977;SDS011;3529;53.244;10.414;2023-09-18T09:13:00;1.42;;;1.42;;
6977;SDS011;3529;53.244;10.414;2023-09-18T09:15:28;1.95;;;1.85;;
6977;SDS011;3529;53.244;10.414;2023-09-18T09:18:04;1.50;;;1.50;;
6977;SDS011;3529;53.244;10.414;2023-09-18T09:20:30;2.50;;;2.40;;
6977;SDS011;3529;53.244;10.414;2023-09-18T09:23:00;1.52;;;1.33;;
6977;SDS011;3529;53.244;10.414;2023-09-18T09:25:30;4.05;;;1.80;;
6977;SDS011;3529;53.244;10.414;2023-09-18T09:27:57;1.30;;;1.30;;
6977;SDS011;3529;53.244;10.414;2023-09-18T09:30:24;1.83;;;1.73;;
6977;SDS011;3529;53.244;10.414;2023-09-18T09:32:50;1.65;;;1.55;;
6977;SDS011;3529;53.244;10.414;2023-09-18T09:35:24;1.42;;;1.40;;
6977;SDS011;3529;53.244;10.414;2023-09-18T09:37:57;2.10;;;1.60;;
6977;SDS011;3529;53.244;10.414;2023-09-18T09:40:24;1.23;;;1.23;;
6977;SDS011;3529;53.244;10.414;2023-09-18T09:42:54;1.48;;;1.40;;
6977;SDS011;3529;53.244;10.414;2023-09-18T09:45:26;1.38;;;1.33;;
6977;SDS011;3529;53.244;10.414;2023-09-18T09:47:53;1.50;;;1.50;;
6977;SDS011;3529;53.244;10.414;2023-09-18T09:50:20;1.25;;;1.25;;
6977;SDS011;3529;53.244;10.414;2023-09-18T09:52:47;2.15;;;2.00;;
6977;SDS011;3529;53.244;10.414;2023-09-18T09:55:18;1.42;;;1.38;;
6977;SDS011;3529;53.244;10.414;2023-09-18T09:57:49;1.05;;;1.05;;
6977;SDS011;3529;53.244;10.414;2023-09-18T10:00:15;2.15;;;1.77;;
6977;SDS011;3529;53.244;10.414;2023-09-18T10:02:53;1.40;;;1.30;;
6977;SDS011;3529;53.244;10.414;2023-09-18T10:05:22;1.33;;;1.23;;
6977;SDS011;3529;53.244;10.414;2023-09-18T10:07:50;1.50;;;1.40;;
6977;SDS011;3529;53.244;10.414;2023-09-18T10:10:17;1.27;;;1.27;;
6977;SDS011;3529;53.244;10.414;2023-09-18T10:12:43;1.17;;;1.10;;
6977;SDS011;3529;53.244;10.414;2023-09-18T10:15:09;1.20;;;1.20;;
6977;SDS011;3529;53.244;10.414;2023-09-18T10:17:37;1.98;;;1.88;;
6977;SDS011;3529;53.244;10.414;2023-09-18T10:20:12;1.58;;;1.48;;
6977;SDS011;3529;53.244;10.414;2023-09-18T10:22:52;1.50;;;1.40;;
6977;SDS011;3529;53.244;10.414;2023-09-18T10:25:23;1.45;;;1.35;;
6977;SDS011;3529;53.244;10.414;2023-09-18T10:27:51;1.58;;;1.42;;
6977;SDS011;3529;53.244;10.414;2023-09-18T10:30:19;1.45;;;1.35;;
6977;SDS011;3529;53.244;10.414;2023-09-18T10:32:47;1.83;;;1.70;;
6977;SDS011;3529;53.244;10.414;2023-09-18T10:35:14;1.23;;;1.13;;
6977;SDS011;3529;53.244;10.414;2023-09-18T10:37:43;1.08;;;1.08;;
6977;SDS011;3529;53.244;10.414;2023-09-18T10:40:10;0.90;;;0.90;;
6977;SDS011;3529;53.244;10.414;2023-09-18T10:42:40;1.92;;;1.80;;
6977;SDS011;3529;53.244;10.414;2023-09-18T10:45:07;1.40;;;1.33;;
6977;SDS011;3529;53.244;10.414;2023-09-18T10:47:35;1.50;;;1.40;;
6977;SDS011;3529;53.244;10.414;2023-09-18T10:50:02;1.77;;;1.67;;
6977;SDS011;3529;53.244;10.414;2023-09-18T10:52:29;1.20;;;1.20;;
6977;SDS011;3529;53.244;10.414;2023-09-18T10:54:55;0.80;;;0.80;;
6977;SDS011;3529;53.244;10.414;2023-09-18T10:57:21;1.38;;;1.33;;
6977;SDS011;3529;53.244;10.414;2023-09-18T10:59:47;1.55;;;1.45;;
6977;SDS011;3529;53.244;10.414;2023-09-18T11:02:14;1.55;;;1.45;;
6977;SDS011;3529;53.244;10.414;2023-09-18T11:04:41;1.40;;;1.30;;
6977;SDS011;3529;53.244;10.414;2023-09-18T11:07:08;2.65;;;1.40;;
6977;SDS011;3529;53.244;10.414;2023-09-18T11:09:41;1.40;;;1.30;;
6977;SDS011;3529;53.244;10.414;2023-09-18T11:12:08;0.90;;;0.90;;
6977;SDS011;3529;53.244;10.414;2023-09-18T11:22:45;1.33;;;1.23;;
6977;SDS011;3529;53.244;10.414;2023-09-18T11:27:59;1.55;;;1.45;;
6977;SDS011;3529;53.244;10.414;2023-09-18T11:30:25;1.17;;;1.17;;
6977;SDS011;3529;53.244;10.414;2023-09-18T11:32:51;1.00;;;1.00;;
6977;SDS011;3529;53.244;10.414;2023-09-18T11:35:18;1.80;;;1.27;;
6977;SDS011;3529;53.244;10.414;2023-09-18T11:37:45;1.00;;;1.00;;
6977;SDS011;3529;53.244;10.414;2023-09-18T11:40:29;1.05;;;1.05;;
6977;SDS011;3529;53.244;10.414;2023-09-18T11:43:18;1.38;;;1.27;;
6977;SDS011;3529;53.244;10.414;2023-09-18T11:45:48;1.55;;;1.45;;
6977;SDS011;3529;53.244;10.414;2023-09-18T11:48:16;1.40;;;1.40;;
6977;SDS011;3529;53.244;10.414;2023-09-18T11:50:43;1.15;;;1.15;;
6977;SDS011;3529;53.244;10.414;2023-09-18T11:53:10;2.13;;;1.45;;
6977;SDS011;3529;53.244;10.414;2023-09-18T11:55:38;1.65;;;1.00;;
6977;SDS011;3529;53.244;10.414;2023-09-18T11:58:05;1.80;;;1.70;;
6977;SDS011;3529;53.244;10.414;2023-09-18T12:00:34;1.50;;;1.40;;
6977;SDS011;3529;53.244;10.414;2023-09-18T12:03:22;1.42;;;1.33;;
6977;SDS011;3529;53.244;10.414;2023-09-18T12:05:57;2.35;;;2.20;;
6977;SDS011;3529;53.244;10.414;2023-09-18T12:08:23;2.08;;;1.88;;
6977;SDS011;3529;53.244;10.414;2023-09-18T12:10:51;1.50;;;1.40;;
6977;SDS011;3529;53.244;10.414;2023-09-18T12:13:18;0.93;;;0.93;;
6977;SDS011;3529;53.244;10.414;2023-09-18T12:15:44;1.60;;;1.50;;
6977;SDS011;3529;53.244;10.414;2023-09-18T12:18:10;1.15;;;1.10;;
6977;SDS011;3529;53.244;10.414;2023-09-18T12:20:37;2.47;;;1.48;;
6977;SDS011;3529;53.244;10.414;2023-09-18T12:23:03;1.40;;;1.30;;
6977;SDS011;3529;53.244;10.414;2023-09-18T12:25:29;0.80;;;0.80;;
6977;SDS011;3529;53.244;10.414;2023-09-18T12:27:55;1.30;;;1.20;;
6977;SDS011;3529;53.244;10.414;2023-09-18T12:30:22;1.27;;;0.85;;
6977;SDS011;3529;53.244;10.414;2023-09-18T12:32:49;1.20;;;1.15;;
6977;SDS011;3529;53.244;10.414;2023-09-18T12:35:15;1.23;;;1.13;;
6977;SDS011;3529;53.244;10.414;2023-09-18T12:37:43;0.85;;;0.85;;
6977;SDS011;3529;53.244;10.414;2023-09-18T12:42:47;1.23;;;1.13;;
6977;SDS011;3529;53.244;10.414;2023-09-18T12:45:13;2.67;;;1.13;;
6977;SDS011;3529;53.244;10.414;2023-09-18T12:47:40;1.02;;;1.02;;
6977;SDS011;3529;53.244;10.414;2023-09-18T12:50:06;0.90;;;0.90;;
6977;SDS011;3529;53.244;10.414;2023-09-18T12:52:32;1.00;;;1.00;;
6977;SDS011;3529;53.244;10.414;2023-09-18T12:54:58;0.95;;;0.95;;
6977;SDS011;3529;53.244;10.414;2023-09-18T12:57:26;0.80;;;0.80;;
6977;SDS011;3529;53.244;10.414;2023-09-18T12:59:53;8.13;;;1.13;;
6977;SDS011;3529;53.244;10.414;2023-09-18T13:02:20;1.00;;;1.00;;
6977;SDS011;3529;53.244;10.414;2023-09-18T13:04:53;0.95;;;0.95;;
6977;SDS011;3529;53.244;10.414;2023-09-18T13:07:19;0.98;;;0.98;;
6977;SDS011;3529;53.244;10.414;2023-09-18T13:10:02;1.00;;;1.00;;
6977;SDS011;3529;53.244;10.414;2023-09-18T13:15:23;0.82;;;0.82;;
6977;SDS011;3529;53.244;10.414;2023-09-18T13:17:52;1.25;;;1.15;;
6977;SDS011;3529;53.244;10.414;2023-09-18T13:20:20;0.90;;;0.90;;
6977;SDS011;3529;53.244;10.414;2023-09-18T13:22:49;1.20;;;1.10;;
6977;SDS011;3529;53.244;10.414;2023-09-18T13:25:19;0.90;;;0.90;;
6977;SDS011;3529;53.244;10.414;2023-09-18T13:27:46;0.90;;;0.90;;
6977;SDS011;3529;53.244;10.414;2023-09-18T13:30:12;2.78;;;0.90;;
6977;SDS011;3529;53.244;10.414;2023-09-18T13:32:42;1.17;;;1.08;;
6977;SDS011;3529;53.244;10.414;2023-09-18T13:35:08;0.70;;;0.70;;
6977;SDS011;3529;53.244;10.414;2023-09-18T13:37:36;2.17;;;1.13;;
6977;SDS011;3529;53.244;10.414;2023-09-18T13:40:03;0.77;;;0.77;;
6977;SDS011;3529;53.244;10.414;2023-09-18T13:42:33;2.25;;;1.10;;
6977;SDS011;3529;53.244;10.414;2023-09-18T13:45:00;1.17;;;1.17;;
6977;SDS011;3529;53.244;10.414;2023-09-18T13:47:26;0.80;;;0.80;;
6977;SDS011;3529;53.244;10.414;2023-09-18T13:49:53;0.77;;;0.77;;
6977;SDS011;3529;53.244;10.414;2023-09-18T13:52:22;0.90;;;0.90;;
6977;SDS011;3529;53.244;10.414;2023-09-18T13:54:48;0.80;;;0.80;;
6977;SDS011;3529;53.244;10.414;2023-09-18T13:57:19;1.90;;;1.65;;
6977;SDS011;3529;53.244;10.414;2023-09-18T13:59:45;0.88;;;0.88;;
6977;SDS011;3529;53.244;10.414;2023-09-18T14:02:15;1.10;;;0.90;;
6977;SDS011;3529;53.244;10.414;2023-09-18T14:04:41;1.13;;;1.02;;
6977;SDS011;3529;53.244;10.414;2023-09-18T14:07:08;0.95;;;0.95;;
6977;SDS011;3529;53.244;10.414;2023-09-18T14:09:34;1.35;;;1.20;;
6977;SDS011;3529;53.244;10.414;2023-09-18T14:12:00;1.00;;;1.00;;
6977;SDS011;3529;53.244;10.414;2023-09-18T14:14:27;1.00;;;1.00;;
6977;SDS011;3529;53.244;10.414;2023-09-18T14:16:53;0.95;;;0.95;;
6977;SDS011;3529;53.244;10.414;2023-09-18T14:19:19;1.23;;;1.10;;
6977;SDS011;3529;53.244;10.414;2023-09-18T14:21:45;1.20;;;1.20;;
6977;SDS011;3529;53.244;10.414;2023-09-18T14:24:14;1.23;;;1.23;;
6977;SDS011;3529;53.244;10.414;2023-09-18T14:26:42;0.80;;;0.80;;
6977;SDS011;3529;53.244;10.414;2023-09-18T14:29:08;1.10;;;1.10;;
6977;SDS011;3529;53.244;10.414;2023-09-18T14:31:35;0.98;;;0.98;;
6977;SDS011;3529;53.244;10.414;2023-09-18T14:34:01;1.00;;;1.00;;
6977;SDS011;3529;53.244;10.414;2023-09-18T14:36:27;0.80;;;0.80;;
6977;SDS011;3529;53.244;10.414;2023-09-18T14:38:55;0.90;;;0.90;;
6977;SDS011;3529;53.244;10.414;2023-09-18T14:41:22;1.15;;;1.15;;
6977;SDS011;3529;53.244;10.414;2023-09-18T14:43:50;1.58;;;1.42;;
6977;SDS011;3529;53.244;10.414;2023-09-18T14:46:16;0.80;;;0.80;;
6977;SDS011;3529;53.244;10.414;2023-09-18T14:48:43;0.93;;;0.93;;
6977;SDS011;3529;53.244;10.414;2023-09-18T14:51:09;1.00;;;1.00;;
6977;SDS011;3529;53.244;10.414;2023-09-18T14:53:35;1.02;;;1.02;;
6977;SDS011;3529;53.244;10.414;2023-09-18T14:56:01;0.95;;;0.95;;
6977;SDS011;3529;53.244;10.414;2023-09-18T14:58:29;1.05;;;1.05;;
6977;SDS011;3529;53.244;10.414;2023-09-18T15:00:55;0.98;;;0.98;;
6977;SDS011;3529;53.244;10.414;2023-09-18T15:03:21;1.02;;;1.02;;
6977;SDS011;3529;53.244;10.414;2023-09-18T15:05:49;1.15;;;1.15;;
6977;SDS011;3529;53.244;10.414;2023-09-18T15:08:16;1.13;;;1.02;;
6977;SDS011;3529;53.244;10.414;2023-09-18T15:10:44;1.50;;;1.40;;
6977;SDS011;3529;53.244;10.414;2023-09-18T15:13:10;1.05;;;1.05;;
6977;SDS011;3529;53.244;10.414;2023-09-18T15:15:36;1.08;;;1.00;;
6977;SDS011;3529;53.244;10.414;2023-09-18T15:18:02;1.00;;;1.00;;
6977;SDS011;3529;53.244;10.414;2023-09-18T15:20:28;1.02;;;1.02;;